createdAt,value
2018-05-23T00:00:50.125Z,981.151
2018-05-23T00:02:50.212Z,981.154
2018-05-23T00:04:50.545Z,981.154
2018-05-23T00:06:50.009Z,981.168
2018-05-23T00:08:50.202Z,981.185
2018-05-23T00:10:50.312Z,981.234
2018-05-23T00:12:50.494Z,981.254
2018-05-23T00:14:49.630Z,981.270
2018-05-23T00:16:49.934Z,981.273
2018-05-23T00:18:50.098Z,981.287
2018-05-23T00:20:50.327Z,981.285
2018-05-23T00:22:50.464Z,981.291
2018-05-23T00:24:49.635Z,981.276
2018-05-23T00:26:49.924Z,981.276
2018-05-23T00:28:50.027Z,981.248
2018-05-23T00:30:50.210Z,981.251
2018-05-23T00:32:50.351Z,981.249
2018-05-23T00:34:49.749Z,981.252
2018-05-23T00:36:50.026Z,981.255
2018-05-23T00:38:50.135Z,981.260
2018-05-23T00:40:50.292Z,981.269
2018-05-23T00:42:50.371Z,981.283
2018-05-23T00:44:50.492Z,981.287
2018-05-23T00:46:49.810Z,981.293
2018-05-23T00:48:49.937Z,981.301
2018-05-23T00:50:50.081Z,981.307
2018-05-23T00:52:50.235Z,981.317
2018-05-23T00:54:50.431Z,981.318
2018-05-23T00:56:49.695Z,981.327
2018-05-23T00:58:49.910Z,981.330
2018-05-23T01:00:50.089Z,981.324
2018-05-23T01:02:50.228Z,981.320
2018-05-23T01:04:49.687Z,981.312
2018-05-23T01:06:49.938Z,981.341
2018-05-23T01:08:50.074Z,981.363
2018-05-23T01:10:50.229Z,981.375
2018-05-23T01:12:50.443Z,981.382
2018-05-23T01:14:50.554Z,981.375
2018-05-23T01:16:49.818Z,981.396
2018-05-23T01:18:49.948Z,981.431
2018-05-23T01:20:50.071Z,981.448
2018-05-23T01:22:50.279Z,981.477
2018-05-23T01:24:50.398Z,981.488
2018-05-23T01:26:49.722Z,981.486
2018-05-23T01:28:49.891Z,981.520
2018-05-23T01:30:50.030Z,981.553
2018-05-23T01:32:50.223Z,981.602
2018-05-23T01:34:50.518Z,981.602
2018-05-23T01:36:49.751Z,981.633
2018-05-23T01:38:49.963Z,981.636
2018-05-23T01:40:50.154Z,981.656
2018-05-23T01:42:50.289Z,981.699
2018-05-23T01:44:50.460Z,981.701
2018-05-23T01:46:49.741Z,981.701
2018-05-23T01:48:49.906Z,981.710
2018-05-23T01:50:50.111Z,981.717
2018-05-23T01:52:50.218Z,981.738
2018-05-23T01:54:50.355Z,981.762
2018-05-23T01:56:50.595Z,981.794
2018-05-23T01:58:49.756Z,981.781
2018-05-23T02:00:49.941Z,981.779
2018-05-23T02:02:50.100Z,981.768
2018-05-23T02:04:50.484Z,981.772
2018-05-23T02:06:49.773Z,981.782
2018-05-23T02:08:50.106Z,981.798
2018-05-23T02:10:50.222Z,981.811
2018-05-23T02:12:50.362Z,981.814
2018-05-23T02:14:50.502Z,981.816
2018-05-23T02:16:49.751Z,981.810
2018-05-23T02:18:49.895Z,981.824
2018-05-23T02:20:50.054Z,981.824
2018-05-23T02:22:50.236Z,981.820
2018-05-23T02:24:50.353Z,981.820
2018-05-23T02:26:50.589Z,981.853
2018-05-23T02:28:49.740Z,981.849
2018-05-23T02:30:49.965Z,981.846
2018-05-23T02:32:50.213Z,981.852
2018-05-23T02:34:50.539Z,981.842
2018-05-23T02:36:49.872Z,981.848
2018-05-23T02:38:50.080Z,981.846
2018-05-23T02:40:50.244Z,981.841
2018-05-23T02:42:50.462Z,981.836
2018-05-23T02:44:50.571Z,981.840
2018-05-23T02:46:49.960Z,981.837
2018-05-23T02:48:50.147Z,981.852
2018-05-23T02:50:50.372Z,981.861
2018-05-23T02:52:50.588Z,981.859
2018-05-23T02:54:49.705Z,981.859
2018-05-23T02:56:49.955Z,981.864
2018-05-23T02:58:50.151Z,981.853
2018-05-23T03:00:50.383Z,981.839
2018-05-23T03:02:50.765Z,981.836
2018-05-23T03:04:50.473Z,981.842
2018-05-23T03:06:49.863Z,981.854
2018-05-23T03:08:50.060Z,981.856
2018-05-23T03:10:50.200Z,981.858
2018-05-23T03:12:50.290Z,981.847
2018-05-23T03:14:50.448Z,981.844
2018-05-23T03:16:49.682Z,981.844
2018-05-23T03:18:49.825Z,981.849
2018-05-23T03:20:49.983Z,981.856
2018-05-23T03:22:50.174Z,981.873
2018-05-23T03:24:50.357Z,981.887
2018-05-23T03:26:50.612Z,981.887
2018-05-23T03:28:49.786Z,981.926
2018-05-23T03:30:49.947Z,981.960
2018-05-23T03:32:50.117Z,981.976
2018-05-23T03:34:50.534Z,981.976
2018-05-23T03:36:49.787Z,981.971
2018-05-23T03:38:49.978Z,982.020
2018-05-23T03:40:50.161Z,982.037
2018-05-23T03:42:50.379Z,982.090
2018-05-23T03:44:50.563Z,982.138
2018-05-23T03:46:49.825Z,982.138
2018-05-23T03:48:50.049Z,982.252
2018-05-23T03:50:50.222Z,982.329
2018-05-23T03:52:50.377Z,982.386
2018-05-23T03:54:50.537Z,982.452
2018-05-23T03:56:49.846Z,982.503
2018-05-23T03:58:49.958Z,982.531
2018-05-23T04:00:50.126Z,982.547
2018-05-23T04:02:50.256Z,982.565
2018-05-23T04:04:50.196Z,982.575
2018-05-23T04:06:49.677Z,982.623
2018-05-23T04:08:49.894Z,982.656
2018-05-23T04:10:50.003Z,982.673
2018-05-23T04:12:50.136Z,982.674
2018-05-23T04:14:50.220Z,982.690
2018-05-23T04:16:50.512Z,982.712
2018-05-23T04:18:49.624Z,982.750
2018-05-23T04:20:49.784Z,982.769
2018-05-23T04:22:49.973Z,982.778
2018-05-23T04:24:50.225Z,982.785
2018-05-23T04:26:50.281Z,982.806
2018-05-23T04:28:50.468Z,982.814
2018-05-23T04:30:49.676Z,982.826
2018-05-23T04:32:49.820Z,982.842
2018-05-23T04:34:50.227Z,982.880
2018-05-23T04:36:50.510Z,982.880
2018-05-23T04:38:49.631Z,982.951
2018-05-23T04:40:49.720Z,982.962
2018-05-23T04:42:49.870Z,982.973
2018-05-23T04:44:49.997Z,982.973
2018-05-23T04:46:50.380Z,982.958
2018-05-23T04:48:50.882Z,982.954
2018-05-23T04:50:50.521Z,982.977
2018-05-23T04:52:49.781Z,982.998
2018-05-23T04:54:49.969Z,983.020
2018-05-23T04:56:50.333Z,983.067
2018-05-23T04:58:50.531Z,983.067
2018-05-23T05:00:49.733Z,983.096
2018-05-23T05:02:49.969Z,983.108
2018-05-23T05:04:50.456Z,983.113
2018-05-23T05:06:49.793Z,983.139
2018-05-23T05:08:49.913Z,983.153
2018-05-23T05:10:50.080Z,983.148
2018-05-23T05:12:50.222Z,983.170
2018-05-23T05:14:50.413Z,983.188
2018-05-23T05:16:50.086Z,983.189
2018-05-23T05:18:50.197Z,983.180
2018-05-23T05:20:50.355Z,983.149
2018-05-23T05:22:50.562Z,983.128
2018-05-23T05:24:49.989Z,983.131
2018-05-23T05:26:50.423Z,983.141
2018-05-23T05:28:50.506Z,983.151
2018-05-23T05:30:49.641Z,983.166
2018-05-23T05:32:49.818Z,983.212
2018-05-23T05:34:50.173Z,983.248
2018-05-23T05:36:49.882Z,983.277
2018-05-23T05:38:50.187Z,983.283
2018-05-23T05:40:49.637Z,983.310
2018-05-23T05:42:49.788Z,983.331
2018-05-23T05:44:49.981Z,983.369
2018-05-23T05:46:50.313Z,983.420
2018-05-23T05:48:50.561Z,983.428
2018-05-23T05:50:49.742Z,983.448
2018-05-23T05:52:49.900Z,983.462
2018-05-23T05:54:50.021Z,983.473
2018-05-23T05:56:50.282Z,983.511
2018-05-23T05:58:50.387Z,983.544
2018-05-23T06:00:50.577Z,983.532
2018-05-23T06:02:49.679Z,983.525
2018-05-23T06:04:50.025Z,983.552
2018-05-23T06:06:50.339Z,983.559
2018-05-23T06:08:50.494Z,983.544
2018-05-23T06:10:49.672Z,983.534
2018-05-23T06:12:49.834Z,983.537
2018-05-23T06:14:49.997Z,983.555
2018-05-23T06:16:50.279Z,983.540
2018-05-23T06:18:50.494Z,983.576
2018-05-23T06:20:49.696Z,983.575
2018-05-23T06:22:49.939Z,983.588
2018-05-23T06:24:50.107Z,983.588
2018-05-23T06:26:50.431Z,983.663
2018-05-23T06:28:50.625Z,983.696
2018-05-23T06:30:49.737Z,983.697
2018-05-23T06:32:49.896Z,983.723
2018-05-23T06:34:50.273Z,983.724
2018-05-23T06:36:49.715Z,983.723
2018-05-23T06:38:49.836Z,983.723
2018-05-23T06:40:50.015Z,983.746
2018-05-23T06:42:50.130Z,983.760
2018-05-23T06:44:50.277Z,983.765
2018-05-23T06:46:50.460Z,983.784
2018-05-23T06:48:49.675Z,983.801
2018-05-23T06:50:49.837Z,983.805
2018-05-23T06:52:49.947Z,983.823
2018-05-23T06:54:50.118Z,983.829
2018-05-23T06:56:50.427Z,983.829
2018-05-23T06:58:49.646Z,983.879
2018-05-23T07:00:49.823Z,983.901
2018-05-23T07:02:49.964Z,983.924
2018-05-23T07:04:50.414Z,983.926
2018-05-23T07:06:49.625Z,983.945
2018-05-23T07:08:49.746Z,983.954
2018-05-23T07:10:49.854Z,983.958
2018-05-23T07:12:50.367Z,983.963
2018-05-23T07:14:50.596Z,983.963
2018-05-23T07:16:49.989Z,984.015
2018-05-23T07:18:50.112Z,984.027
2018-05-23T07:20:50.276Z,984.030
2018-05-23T07:22:50.431Z,984.036
2018-05-23T07:24:50.584Z,984.058
2018-05-23T07:26:49.931Z,984.070
2018-05-23T07:28:50.089Z,984.064
2018-05-23T07:30:50.280Z,984.060
2018-05-23T07:32:50.580Z,984.072
2018-05-23T07:34:50.047Z,984.075
2018-05-23T07:36:50.336Z,984.088
2018-05-23T07:38:50.488Z,984.068
2018-05-23T07:40:50.593Z,984.062
2018-05-23T07:42:49.721Z,984.091
2018-05-23T07:44:49.919Z,984.095
2018-05-23T07:46:50.158Z,984.150
2018-05-23T07:48:50.362Z,984.171
2018-05-23T07:50:50.528Z,984.179
2018-05-23T07:52:49.857Z,984.197
2018-05-23T07:54:49.971Z,984.233
2018-05-23T07:56:50.189Z,984.257
2018-05-23T07:58:50.287Z,984.293
2018-05-23T08:00:50.379Z,984.293
2018-05-23T08:02:50.542Z,984.326
2018-05-23T08:04:49.993Z,984.352
2018-05-23T08:06:50.323Z,984.407
2018-05-23T08:08:50.444Z,984.418
2018-05-23T08:10:50.693Z,984.443
2018-05-23T08:12:49.847Z,984.451
2018-05-23T08:14:49.956Z,984.468
2018-05-23T08:16:50.116Z,984.478
2018-05-23T08:18:50.349Z,984.489
2018-05-23T08:20:50.487Z,984.494
2018-05-23T08:22:49.770Z,984.514
2018-05-23T08:24:49.923Z,984.541
2018-05-23T08:26:50.189Z,984.558
2018-05-23T08:28:50.276Z,984.545
2018-05-23T08:30:50.399Z,984.552
2018-05-23T08:32:49.712Z,984.552
2018-05-23T08:34:50.012Z,984.554
2018-05-23T08:36:50.317Z,984.567
2018-05-23T08:38:50.467Z,984.581
2018-05-23T08:40:50.567Z,984.583
2018-05-23T08:42:49.923Z,984.577
2018-05-23T08:44:50.131Z,984.561
2018-05-23T08:46:50.428Z,984.554
2018-05-23T08:48:50.522Z,984.554
2018-05-23T08:50:49.636Z,984.567
2018-05-23T08:52:49.900Z,984.592
2018-05-23T08:54:50.170Z,984.612
2018-05-23T08:56:49.771Z,984.657
2018-05-23T08:58:49.911Z,984.674
2018-05-23T09:00:50.080Z,984.680
2018-05-23T09:02:50.364Z,984.664
2018-05-23T09:04:49.632Z,984.642
2018-05-23T09:06:49.952Z,984.615
2018-05-23T09:08:50.026Z,984.631
2018-05-23T09:10:50.134Z,984.658
2018-05-23T09:12:50.225Z,984.736
2018-05-23T09:14:50.292Z,984.771
2018-05-23T09:16:50.771Z,984.791
2018-05-23T09:18:50.172Z,984.791
2018-05-23T09:20:50.369Z,984.819
2018-05-23T09:22:50.396Z,984.826
2018-05-23T09:24:50.569Z,984.876
2018-05-23T09:26:49.951Z,984.917
2018-05-23T09:28:50.099Z,984.968
2018-05-23T09:30:50.281Z,985.013
2018-05-23T09:32:50.381Z,985.066
2018-05-23T09:34:49.692Z,985.083
2018-05-23T09:36:49.941Z,985.079
2018-05-23T09:38:50.108Z,985.109
2018-05-23T09:40:50.196Z,985.123
2018-05-23T09:42:50.346Z,985.128
2018-05-23T09:44:50.543Z,985.105
2018-05-23T09:46:49.812Z,985.088
2018-05-23T09:48:49.942Z,985.035
2018-05-23T09:50:50.193Z,984.999
2018-05-23T09:52:50.317Z,984.940
2018-05-23T09:54:50.436Z,984.929
2018-05-23T09:56:49.754Z,984.941
2018-05-23T09:58:49.953Z,984.973
2018-05-23T10:00:50.113Z,984.989
2018-05-23T10:02:50.267Z,985.022
2018-05-23T10:04:49.625Z,985.028
2018-05-23T10:06:49.935Z,985.056
2018-05-23T10:08:50.029Z,985.056
2018-05-23T10:10:50.226Z,985.051
2018-05-23T10:12:50.373Z,985.042
2018-05-23T10:14:50.505Z,985.025
2018-05-23T10:16:49.722Z,985.018
2018-05-23T10:18:49.816Z,985.003
2018-05-23T10:20:50.004Z,984.973
2018-05-23T10:22:50.157Z,984.965
2018-05-23T10:24:50.309Z,984.944
2018-05-23T10:26:49.628Z,984.966
2018-05-23T10:28:49.739Z,984.984
2018-05-23T10:30:49.958Z,984.997
2018-05-23T10:32:50.130Z,985.026
2018-05-23T10:34:50.515Z,985.031
2018-05-23T10:36:49.967Z,985.027
2018-05-23T10:38:50.108Z,985.037
2018-05-23T10:40:50.222Z,985.041
2018-05-23T10:42:50.383Z,985.001
2018-05-23T10:44:50.501Z,984.960
2018-05-23T10:46:49.813Z,984.920
2018-05-23T10:48:49.973Z,984.889
2018-05-23T10:50:50.095Z,984.851
2018-05-23T10:52:50.297Z,984.840
2018-05-23T10:54:50.391Z,984.803
2018-05-23T10:56:49.711Z,984.771
2018-05-23T10:58:49.839Z,984.764
2018-05-23T11:00:49.976Z,984.773
2018-05-23T11:02:50.428Z,984.784
2018-05-23T11:04:49.923Z,984.786
2018-05-23T11:06:50.200Z,984.790
2018-05-23T11:08:50.580Z,984.804
2018-05-23T11:10:49.963Z,984.809
2018-05-23T11:12:50.078Z,984.808
2018-05-23T11:14:50.231Z,984.810
2018-05-23T11:16:50.483Z,984.796
2018-05-23T11:18:49.717Z,984.793
2018-05-23T11:20:49.877Z,984.762
2018-05-23T11:22:50.011Z,984.768
2018-05-23T11:24:50.238Z,984.738
2018-05-23T11:26:50.554Z,984.730
2018-05-23T11:28:49.773Z,984.720
2018-05-23T11:30:49.955Z,984.722
2018-05-23T11:32:50.086Z,984.738
2018-05-23T11:34:50.490Z,984.742
2018-05-23T11:36:49.886Z,984.738
2018-05-23T11:38:50.017Z,984.688
2018-05-23T11:40:50.183Z,984.624
2018-05-23T11:42:50.336Z,984.600
2018-05-23T11:44:50.542Z,984.600
2018-05-23T11:46:49.801Z,984.567
2018-05-23T11:48:49.915Z,984.542
2018-05-23T11:50:50.143Z,984.478
2018-05-23T11:52:50.277Z,984.478
2018-05-23T11:54:50.491Z,984.406
2018-05-23T11:56:49.840Z,984.409
2018-05-23T11:58:49.960Z,984.409
2018-05-23T12:00:50.131Z,984.361
2018-05-23T12:02:50.261Z,984.364
2018-05-23T12:04:49.710Z,984.325
2018-05-23T12:06:49.920Z,984.311
2018-05-23T12:08:50.053Z,984.274
2018-05-23T12:10:50.223Z,984.274
2018-05-23T12:12:50.362Z,984.255
2018-05-23T12:14:50.593Z,984.186
2018-05-23T12:16:49.850Z,984.171
2018-05-23T12:18:50.041Z,984.129
2018-05-23T12:20:50.181Z,984.113
2018-05-23T12:22:50.349Z,984.108
2018-05-23T12:24:50.525Z,984.111
2018-05-23T12:26:50.070Z,984.094
2018-05-23T12:28:50.264Z,984.079
2018-05-23T12:30:50.380Z,984.084
2018-05-23T12:32:50.591Z,984.073
2018-05-23T12:34:49.852Z,984.059
2018-05-23T12:36:50.178Z,984.044
2018-05-23T12:38:50.298Z,984.029
2018-05-23T12:40:50.424Z,984.050
2018-05-23T12:42:50.552Z,984.057
2018-05-23T12:44:49.717Z,984.012
2018-05-23T12:46:50.012Z,983.997
2018-05-23T12:48:50.106Z,984.002
2018-05-23T12:50:50.319Z,984.008
2018-05-23T12:52:50.561Z,984.049
2018-05-23T12:54:49.758Z,984.065
2018-05-23T12:56:49.953Z,984.079
2018-05-23T12:58:50.173Z,984.062
2018-05-23T13:00:50.281Z,984.054
2018-05-23T13:02:50.428Z,984.036
2018-05-23T13:04:49.892Z,984.034
2018-05-23T13:06:50.098Z,984.017
2018-05-23T13:08:50.243Z,983.985
2018-05-23T13:10:50.349Z,983.966
2018-05-23T13:12:50.535Z,983.964
2018-05-23T13:14:49.641Z,983.979
2018-05-23T13:16:49.925Z,984.002
2018-05-23T13:18:50.131Z,984.021
2018-05-23T13:20:50.292Z,984.017
2018-05-23T13:22:50.415Z,984.017
2018-05-23T13:24:50.554Z,983.998
2018-05-23T13:26:49.780Z,983.976
2018-05-23T13:28:49.938Z,983.913
2018-05-23T13:30:50.054Z,983.868
2018-05-23T13:32:50.210Z,983.814
2018-05-23T13:34:50.443Z,983.818
2018-05-23T13:36:49.638Z,983.791
2018-05-23T13:38:49.826Z,983.761
2018-05-23T13:40:50.117Z,983.715
2018-05-23T13:42:50.259Z,983.697
2018-05-23T13:44:50.394Z,983.690
2018-05-23T13:46:49.628Z,983.688
2018-05-23T13:48:49.767Z,983.688
2018-05-23T13:50:49.895Z,983.653
2018-05-23T13:52:50.142Z,983.651
2018-05-23T13:54:50.265Z,983.666
2018-05-23T13:56:50.618Z,983.654
2018-05-23T13:58:49.736Z,983.633
2018-05-23T14:00:49.957Z,983.620
2018-05-23T14:02:50.192Z,983.606
2018-05-23T14:04:50.544Z,983.588
2018-05-23T14:06:49.847Z,983.591
2018-05-23T14:08:50.042Z,983.632
2018-05-23T14:10:50.259Z,983.637
2018-05-23T14:12:50.360Z,983.639
2018-05-23T14:14:50.482Z,983.635
2018-05-23T14:16:49.857Z,983.656
2018-05-23T14:18:50.007Z,983.640
2018-05-23T14:20:50.167Z,983.607
2018-05-23T14:22:50.314Z,983.578
2018-05-23T14:24:50.450Z,983.566
2018-05-23T14:26:49.689Z,983.561
2018-05-23T14:28:49.797Z,983.562
2018-05-23T14:30:49.928Z,983.581
2018-05-23T14:32:50.080Z,983.590
2018-05-23T14:34:50.549Z,983.593
2018-05-23T14:36:49.943Z,983.551
2018-05-23T14:38:50.096Z,983.526
2018-05-23T14:40:50.180Z,983.494
2018-05-23T14:42:50.346Z,983.481
2018-05-23T14:44:50.426Z,983.474
2018-05-23T14:46:49.655Z,983.553
2018-05-23T14:48:49.789Z,983.598
2018-05-23T14:50:49.941Z,983.653
2018-05-23T14:52:50.045Z,983.695
2018-05-23T14:54:50.167Z,983.829
2018-05-23T14:56:50.407Z,983.932
2018-05-23T14:58:50.561Z,984.065
2018-05-23T15:00:49.709Z,984.103
2018-05-23T15:02:49.799Z,984.107
2018-05-23T15:04:50.150Z,984.154
2018-05-23T15:06:50.440Z,984.172
2018-05-23T15:08:49.652Z,984.180
2018-05-23T15:10:49.822Z,984.219
2018-05-23T15:12:49.985Z,984.222
2018-05-23T15:14:50.084Z,984.174
2018-05-23T15:16:50.295Z,984.183
2018-05-23T15:18:50.479Z,984.187
2018-05-23T15:20:49.638Z,984.205
2018-05-23T15:22:49.811Z,984.230
2018-05-23T15:24:49.948Z,984.245
2018-05-23T15:26:50.302Z,984.263
2018-05-23T15:28:50.416Z,984.274
2018-05-23T15:30:50.602Z,984.349
2018-05-23T15:32:50.140Z,984.377
2018-05-23T15:34:50.484Z,984.393
2018-05-23T15:36:49.730Z,984.439
2018-05-23T15:38:49.866Z,984.517
2018-05-23T15:40:50.074Z,984.576
2018-05-23T15:42:50.210Z,984.667
2018-05-23T15:44:50.309Z,984.722
2018-05-23T15:46:50.537Z,984.841
2018-05-23T15:48:49.682Z,984.972
2018-05-23T15:50:49.803Z,985.027
2018-05-23T15:52:49.980Z,985.049
2018-05-23T15:54:50.237Z,985.041
2018-05-23T15:56:50.832Z,985.061
2018-05-23T15:58:50.113Z,985.099
2018-05-23T16:00:50.265Z,985.136
2018-05-23T16:02:50.565Z,985.148
2018-05-23T16:04:50.076Z,985.132
2018-05-23T16:06:50.271Z,985.142
2018-05-23T16:08:50.461Z,985.163
2018-05-23T16:10:49.631Z,985.176
2018-05-23T16:12:49.769Z,985.211
2018-05-23T16:14:50.038Z,985.223
2018-05-23T16:16:49.760Z,985.216
2018-05-23T16:18:49.893Z,985.242
2018-05-23T16:20:50.053Z,985.270
2018-05-23T16:22:50.219Z,985.280
2018-05-23T16:24:50.355Z,985.291
2018-05-23T16:26:49.782Z,985.317
2018-05-23T16:28:49.957Z,985.349
2018-05-23T16:30:50.120Z,985.350
2018-05-23T16:32:50.253Z,985.361
2018-05-23T16:34:50.543Z,985.374
2018-05-23T16:36:49.787Z,985.356
2018-05-23T16:38:49.930Z,985.362
2018-05-23T16:40:50.122Z,985.381
2018-05-23T16:42:50.270Z,985.367
2018-05-23T16:44:50.449Z,985.360
2018-05-23T16:46:49.721Z,985.313
2018-05-23T16:48:49.837Z,985.301
2018-05-23T16:50:49.990Z,985.315
2018-05-23T16:52:50.116Z,985.353
2018-05-23T16:54:50.255Z,985.358
2018-05-23T16:56:50.490Z,985.392
2018-05-23T16:58:49.606Z,985.395
2018-05-23T17:00:49.715Z,985.406
2018-05-23T17:02:49.782Z,985.400
2018-05-23T17:04:50.187Z,985.373
2018-05-23T17:06:50.418Z,985.357
2018-05-23T17:08:50.618Z,985.357
2018-05-23T17:10:49.726Z,985.322
2018-05-23T17:12:49.932Z,985.324
2018-05-23T17:14:50.043Z,985.322
2018-05-23T17:16:50.298Z,985.318
2018-05-23T17:18:50.734Z,985.301
2018-05-23T17:20:50.248Z,985.280
2018-05-23T17:22:50.362Z,985.253
2018-05-23T17:24:50.490Z,985.206
2018-05-23T17:26:49.749Z,985.177
2018-05-23T17:28:49.853Z,985.158
2018-05-23T17:30:49.990Z,985.154
2018-05-23T17:32:50.164Z,985.149
2018-05-23T17:34:50.442Z,985.141
2018-05-23T17:36:49.789Z,985.140
2018-05-23T17:38:49.990Z,985.150
2018-05-23T17:40:50.179Z,985.177
2018-05-23T17:42:50.404Z,985.189
2018-05-23T17:44:50.535Z,985.185
2018-05-23T17:46:49.896Z,985.186
2018-05-23T17:48:50.023Z,985.167
2018-05-23T17:50:50.238Z,985.138
2018-05-23T17:52:50.459Z,985.139
2018-05-23T17:54:50.644Z,985.149
2018-05-23T17:56:49.853Z,985.167
2018-05-23T17:58:50.027Z,985.133
2018-05-23T18:00:50.176Z,985.128
2018-05-23T18:02:50.282Z,985.135
2018-05-23T18:04:50.562Z,985.139
2018-05-23T18:06:49.825Z,985.124
2018-05-23T18:08:49.919Z,985.111
2018-05-23T18:10:50.103Z,985.133
2018-05-23T18:12:50.211Z,985.131
2018-05-23T18:14:50.366Z,985.106
2018-05-23T18:16:49.844Z,985.075
2018-05-23T18:18:50.504Z,985.042
2018-05-23T18:20:50.574Z,985.009
2018-05-23T18:22:49.729Z,984.986
2018-05-23T18:24:49.996Z,984.957
2018-05-23T18:26:50.236Z,984.927
2018-05-23T18:28:50.378Z,984.927
2018-05-23T18:30:50.499Z,984.902
2018-05-23T18:32:49.703Z,984.890
2018-05-23T18:34:50.188Z,984.860
2018-05-23T18:36:50.485Z,984.841
2018-05-23T18:38:49.682Z,984.834
2018-05-23T18:40:49.770Z,984.845
2018-05-23T18:42:49.899Z,984.869
2018-05-23T18:44:50.012Z,984.888
2018-05-23T18:46:50.398Z,984.899
2018-05-23T18:48:50.139Z,984.915
2018-05-23T18:50:50.246Z,984.907
2018-05-23T18:52:50.366Z,984.895
2018-05-23T18:54:50.485Z,984.897
2018-05-23T18:56:49.801Z,984.900
2018-05-23T18:58:49.957Z,984.917
2018-05-23T19:00:50.116Z,984.931
2018-05-23T19:02:50.269Z,984.937
2018-05-23T19:04:49.767Z,984.937
2018-05-23T19:06:50.137Z,984.953
2018-05-23T19:08:50.309Z,984.968
2018-05-23T19:10:50.487Z,984.996
2018-05-23T19:12:50.611Z,985.000
2018-05-23T19:14:49.813Z,985.022
2018-05-23T19:16:50.027Z,985.050
2018-05-23T19:18:50.232Z,985.066
2018-05-23T19:20:50.340Z,985.115
2018-05-23T19:22:50.508Z,985.152
2018-05-23T19:24:49.648Z,985.182
2018-05-23T19:26:49.952Z,985.203
2018-05-23T19:28:50.076Z,985.253
2018-05-23T19:30:50.273Z,985.280
2018-05-23T19:32:50.474Z,985.359
2018-05-23T19:34:49.828Z,985.418
2018-05-23T19:36:50.101Z,985.451
2018-05-23T19:38:50.270Z,985.497
2018-05-23T19:40:50.417Z,985.506
2018-05-23T19:42:50.575Z,985.507
2018-05-23T19:44:49.675Z,985.515
2018-05-23T19:46:49.911Z,985.502
2018-05-23T19:48:50.131Z,985.502
2018-05-23T19:50:50.260Z,985.514
2018-05-23T19:52:50.866Z,985.509
2018-05-23T19:54:49.879Z,985.531
2018-05-23T19:56:50.195Z,985.559
2018-05-23T19:58:50.356Z,985.567
2018-05-23T20:00:50.516Z,985.561
2018-05-23T20:02:49.678Z,985.572
2018-05-23T20:04:50.086Z,985.569
2018-05-23T20:06:50.386Z,985.576
2018-05-23T20:08:50.514Z,985.575
2018-05-23T20:10:49.663Z,985.544
2018-05-23T20:12:49.797Z,985.518
2018-05-23T20:14:49.924Z,985.502
2018-05-23T20:16:50.257Z,985.491
2018-05-23T20:18:50.430Z,985.483
2018-05-23T20:20:50.944Z,985.470
2018-05-23T20:22:49.899Z,985.453
2018-05-23T20:24:50.026Z,985.432
2018-05-23T20:26:50.257Z,985.427
2018-05-23T20:28:50.423Z,985.451
2018-05-23T20:30:50.566Z,985.489
2018-05-23T20:32:49.676Z,985.531
2018-05-23T20:34:49.949Z,985.553
2018-05-23T20:36:50.170Z,985.620
2018-05-23T20:38:50.265Z,985.648
2018-05-23T20:40:50.390Z,985.662
2018-05-23T20:42:50.595Z,985.677
2018-05-23T20:44:49.702Z,985.685
2018-05-23T20:46:49.998Z,985.675
2018-05-23T20:48:50.140Z,985.669
2018-05-23T20:50:50.246Z,985.646
2018-05-23T20:52:50.471Z,985.631
2018-05-23T20:54:50.602Z,985.634
2018-05-23T20:56:49.859Z,985.624
2018-05-23T20:58:50.259Z,985.626
2018-05-23T21:00:50.484Z,985.602
2018-05-23T21:02:49.688Z,985.604
2018-05-23T21:04:50.100Z,985.575
2018-05-23T21:06:50.300Z,985.521
2018-05-23T21:08:50.481Z,985.508
2018-05-23T21:10:50.571Z,985.519
2018-05-23T21:12:49.655Z,985.583
2018-05-23T21:14:49.810Z,985.617
2018-05-23T21:16:50.099Z,985.638
2018-05-23T21:18:50.239Z,985.638
2018-05-23T21:20:50.472Z,985.654
2018-05-23T21:22:50.602Z,985.654
2018-05-23T21:24:49.734Z,985.629
2018-05-23T21:26:50.072Z,985.619
2018-05-23T21:28:50.191Z,985.609
2018-05-23T21:30:50.311Z,985.591
2018-05-23T21:32:50.418Z,985.572
2018-05-23T21:34:49.845Z,985.550
2018-05-23T21:36:50.162Z,985.546
2018-05-23T21:38:50.301Z,985.517
2018-05-23T21:40:50.481Z,985.501
2018-05-23T21:42:49.652Z,985.486
2018-05-23T21:44:49.821Z,985.480
2018-05-23T21:46:50.041Z,985.480
2018-05-23T21:48:50.134Z,985.468
2018-05-23T21:50:50.262Z,985.474
2018-05-23T21:52:50.548Z,985.480
2018-05-23T21:54:49.661Z,985.482
2018-05-23T21:56:49.910Z,985.488
2018-05-23T21:58:50.135Z,985.480
2018-05-23T22:00:50.259Z,985.480
2018-05-23T22:02:50.388Z,985.493
2018-05-23T22:04:49.687Z,985.503
2018-05-23T22:06:49.953Z,985.510
2018-05-23T22:08:50.110Z,985.503
2018-05-23T22:10:50.277Z,985.502
2018-05-23T22:12:50.424Z,985.501
2018-05-23T22:14:50.541Z,985.489
2018-05-23T22:16:49.766Z,985.492
2018-05-23T22:18:49.904Z,985.484
2018-05-23T22:20:50.137Z,985.493
2018-05-23T22:22:50.279Z,985.493
2018-05-23T22:24:50.448Z,985.505
2018-05-23T22:26:49.756Z,985.531
2018-05-23T22:28:49.886Z,985.555
2018-05-23T22:30:50.042Z,985.562
2018-05-23T22:32:50.184Z,985.560
2018-05-23T22:34:49.732Z,985.560
2018-05-23T22:36:49.944Z,985.588
2018-05-23T22:38:50.104Z,985.595
2018-05-23T22:40:50.285Z,985.620
2018-05-23T22:42:50.366Z,985.619
2018-05-23T22:44:50.546Z,985.627
2018-05-23T22:46:49.926Z,985.635
2018-05-23T22:48:50.037Z,985.653
2018-05-23T22:50:50.176Z,985.667
2018-05-23T22:52:50.296Z,985.657
2018-05-23T22:54:50.382Z,985.663
2018-05-23T22:56:49.716Z,985.658
2018-05-23T22:58:49.853Z,985.659
2018-05-23T23:00:49.981Z,985.660
2018-05-23T23:02:50.178Z,985.675
2018-05-23T23:04:50.533Z,985.695
2018-05-23T23:06:49.807Z,985.690
2018-05-23T23:08:50.005Z,985.671
2018-05-23T23:10:50.240Z,985.668
2018-05-23T23:12:50.461Z,985.672
2018-05-23T23:14:50.589Z,985.664
2018-05-23T23:16:49.874Z,985.673
2018-05-23T23:18:50.217Z,985.671
2018-05-23T23:20:49.638Z,985.676
2018-05-23T23:22:49.775Z,985.689
2018-05-23T23:24:49.923Z,985.690
2018-05-23T23:26:50.221Z,985.684
2018-05-23T23:28:50.349Z,985.677
2018-05-23T23:30:50.487Z,985.702
2018-05-23T23:32:49.722Z,985.712
2018-05-23T23:34:50.175Z,985.705
2018-05-23T23:36:50.474Z,985.709
2018-05-23T23:38:49.624Z,985.714
2018-05-23T23:40:49.912Z,985.702
2018-05-23T23:42:50.048Z,985.709
2018-05-23T23:44:50.298Z,985.691
2018-05-23T23:46:49.633Z,985.707
2018-05-23T23:48:49.730Z,985.718
2018-05-23T23:50:49.865Z,985.711
2018-05-23T23:52:50.010Z,985.699
2018-05-23T23:54:50.196Z,985.709
2018-05-23T23:56:50.483Z,985.704
2018-05-23T23:58:49.670Z,985.718
